Mount Pleasant, MI (48804)

5:02 AM EST on February 06, 2016 (GMT -0500)
Chippewa Township | | Change Station
CLOSE
Current Station
Personal Weather Station
Location: Mt Pleasant, MI
Elevation: 755 ft
Nearby Weather Stations

Elev 755 ft 43.63 °N, 84.65 °W | Updated 2 minutes ago

Scattered Clouds
Scattered Clouds
24.3 °F
Feels Like 24 °F
N
0.0
Wind Variable Wind from South
Gusts 0.0 mph

Today
High -- | Low -- °F
--% Chance of Precip.
Yesterday
High -- | Low -- °F
Precip. -- in
Pressure 30.21 in
Visibility 10.0 miles
Clouds Scattered Clouds 12000 ft
Windchill 24 °F
Dew Point -1 °F
Humidity 33%
Rainfall Not available.
Snow Depth Not available.
7:49 AM 5:56 PM
Waning Crescent, 6% visible
METAR KMOP 060955Z AUTO 21003KT 10SM SCT120 M04/M08 A3021 RMK AO2 T10401082
Pressure 30.21 in
Visibility 10.0 miles
Clouds Scattered Clouds 12000 ft
Windchill 24 °F
Dew Point -1 °F
Humidity 33%
Rainfall Not available.
Snow Depth Not available.
7:49 AM 5:56 PM
Waning Crescent, 6% visible
METAR KMOP 060955Z AUTO 21003KT 10SM SCT120 M04/M08 A3021 RMK AO2 T10401082

10-Day Weather Forecast

Almanac

Astronomy

Feb. 06, 2016 Rise Set
Actual Time
Civil Twilight
Nautical Twilight
Astronomical Twilight
Moon
Length of Visible Light
Length of Day
Tomorrow will be .
, % of the Moon is Illuminated

Today's Extremes

State Highs State Lows

Community

WunderPhotos

Upload Photos

1,890,933 photos uploaded!

WunderBlog® & News

Nearby

Air Quality

  Air Quality AQ Index Pollutant
Not available.

Snow Depth

Station Depth Elevation

Earthquake Activity

City Distance Mag. Time & Date
Minimum magnitude displayed is 2.5.

Coastal Water Temperatures

Place Temperature

Stations

Nearby Weather Stations

Station Location Temp. Windchill Dew Point Humidity Wind Precip. Elev Updated Type
                   

Watches & Warnings

There are currently no watches in effect.